(°C)
(°C)
ZJZ
Z
Z
ZSZ
ZSZ
SZ
SZ
(km/h)
8-17
7-15
6-14
5-13
4-11
4-9
4-8
(mm)
0
0
1.1
0
0
0
0
(%)
24
24
69
47
35
47
47

Sluneční výška

/ -24.9°
sun-icon
UV 1
07:09
19:00
Poslední čtvrť (274°)
23:12
15:54

METAR pro 51.02°S 71.47°V (UACC)

Čas Podmínky Teplota/
Rosný bod
Vítr Viditelnost Počasí Oblaky Tlak Změna Nezpracované
VFR 7°C / 6°C 250º 8kt >10km - Scattered Clouds 700ft 1006 No Significant change. Runway 22: Wet or puddles, 51-100% contamination with 3mm, friction coefficient 0.50. UACC 282200Z 25004MPS 9999 SCT007 OVC043CB 07/06 Q1006 R22/290350 NOSIG RMK QFE724/0965
IFR 7°C / 6°C 250º 10kt >10km - Broken Clouds 800ft 1006 No Significant change. Runway 22: Wet or puddles, 51-100% contamination with 3mm, friction coefficient 0.50. UACC 282130Z 25005MPS 9999 BKN008 OVC036CB 07/06 Q1006 R22/290350 NOSIG RMK QFE724/0965
IFR 7°C / 6°C 240º 12kt >10km - Broken Clouds 800ft 1006 No Significant change. Runway 22: Wet or puddles, 51-100% contamination with 3mm, friction coefficient 0.50. UACC 282100Z 24006MPS 9999 BKN008 OVC036CB 07/06 Q1006 R22/290350 NOSIG RMK QFE723/0965
VFR 7°C / 7°C 220º 8kt >10km - Scattered Clouds 800ft 1006 No Significant change. Runway 22: Wet or puddles, 51-100% contamination with 3mm, friction coefficient 0.50. UACC 282030Z 22004MPS 9999 SCT008 OVC036CB 07/07 Q1006 R22/290350 NOSIG RMK QFE723/0965
MVFR 7°C / 6°C 220º 4kt 7000m Light Showers Rain 3.00mm precipitation Vertical Visibility of 0ft. 1006 No Significant change. Runway 22: Wet or puddles, 51-100% contamination with 3mm, friction coefficient 0.50. UACC 282000Z 22002MPS 7000 -SHRA SCT013 OVC036CB 07/06 Q1006 R22/290350 NOSIG RMK QFE723/0964
VFR 7°C / 6°C 210º 6kt >10km - Scattered Clouds 1400ft 1006 No Significant change. Runway 22: Wet or puddles, 51-100% contamination with 3mm, friction coefficient 0.50. UACC 281930Z 21003MPS 9999 SCT014 BKN036CB 07/06 Q1006 R22/290350 NOSIG RMK QFE723/0964
VFR 6°C / 5°C 180º 4kt >10km - Few Clouds 2300ft 1005 No Significant change. Runway 22: Wet or puddles, 51-100% contamination with 3mm, friction coefficient 0.50. UACC 281900Z 18002MPS 9999 FEW023CB 06/05 Q1005 R22/290350 NOSIG RMK QFE723/0964
VFR 6°C / 5°C variable 2kt >10km - Few Clouds 3000ft 1005 No Significant change. Runway 22: Wet or puddles, 51-100% contamination with 3mm, friction coefficient 0.50. UACC 281830Z VRB01MPS 9999 FEW030CB 06/05 Q1005 R22/290350 NOSIG RMK QFE723/0964
VFR 7°C / 5°C 350º 6kt >10km - Few Clouds 1200ft 1005 No Significant change. Runway 22: Wet or puddles, 51-100% contamination with 3mm, friction coefficient 0.50. UACC 281800Z 35003MPS 9999 FEW012 BKN036CB 07/05 Q1005 R22/290350 NOSIG RMK QFE723/0964
MVFR 8°C / 6°C 310º 8kt 5000m Light Showers Rain 3.00mm precipitation Vertical Visibility of 0ft. 1006 No Significant change. Runway 22: Wet or puddles, 51-100% contamination with 3mm, friction coefficient 0.50. UACC 281730Z 31004MPS 5000 -SHRA SCT008 BKN026CB 08/06 Q1006 RESHRA R22/290350 NOSIG RMK QFE723/0965
IFR 8°C / 7°C 240º 4kt 2000m. Runway 22: Visual range is 2000m and decreasing. Showers Rain 3.00mm precipitation Vertical Visibility of 0ft. 1006 No Significant change. Runway 22: Wet or puddles, 51-100% contamination, friction coefficient 0.60. UACC 281707Z 24002MPS 2000 R22/P2000D SHRA SCT020CB OVC036 08/07 Q1006 R22/29//60 NOSIG RMK QFE724/0965
MVFR 8°C / 7°C 50º variable 020º to 080º 4kt >10km Light Drizzle 0.20mm precipitation Vertical Visibility of 0ft. 1006 No Significant change. Runway 22: Wet or puddles, 51-100% contamination, friction coefficient 0.60. UACC 281630Z 05002MPS 020V080 9999 -DZ OVC017 08/07 Q1006 R22/29//60 NOSIG RMK QFE723/0965
MVFR 8°C / 7°C 20º variable 350º to 060º 4kt 7000m Light Drizzle 0.20mm precipitation Vertical Visibility of 0ft. 1006 No Significant change. Runway 22: Wet or puddles, 51-100% contamination, friction coefficient 0.60. UACC 281600Z 02002MPS 350V060 7000 -DZ OVC014 08/07 Q1006 R22/29//60 NOSIG RMK QFE723/0965
VFR 8°C / 7°C 330º variable 290º to 360º 8kt >10km - Scattered Clouds 700ft 1006 No Significant change. Runway 22: Wet or puddles, 51-100% contamination, friction coefficient 0.60. UACC 281530Z 33004MPS 290V360 9999 SCT007 BKN063CB 08/07 Q1006 R22/29//60 NOSIG RMK QFE724/0965
VFR 7°C / 7°C 140º 6kt >10km - Scattered Clouds 3600ft 1006 No Significant change. Runway 22: Wet or puddles, 51-100% contamination, friction coefficient 0.60. UACC 281500Z 14003MPS 9999 SCT036CB 07/07 Q1006 R22/29//60 NOSIG RMK QFE724/0965
VFR 6°C / 5°C 140º 6kt >10km - Few Clouds 3000ft 1006 No Significant change. Runway 22: Wet or puddles, 51-100% contamination, friction coefficient 0.60. UACC 281430Z 14003MPS 9999 FEW030 06/05 Q1006 R22/29//60 NOSIG RMK QFE724/0965
VFR 7°C / 6°C variable 2kt >10km - Scattered Clouds 3000ft 1006 No Significant change. Runway 22: Wet or puddles, 51-100% contamination, friction coefficient 0.60. UACC 281400Z VRB01MPS 9999 SCT030 07/06 Q1006 R22/29//60 NOSIG RMK QFE724/0965
VFR 8°C / 7°C 180º 6kt >10km - Scattered Clouds 2300ft 1006 No Significant change. Runway 22: Wet or puddles, 51-100% contamination, friction coefficient 0.60. UACC 281330Z 18003MPS 9999 SCT023 08/07 Q1006 R22/29//60 NOSIG RMK QFE724/0965
MVFR 9°C / 7°C 180º 8kt >10km - Broken Clouds 1600ft 1007 No Significant change. Runway 22: Wet or puddles, , friction coefficient 0.55. UACC 281300Z 18004MPS 9999 BKN016 09/07 Q1007 R22/2///55 NOSIG RMK QFE724/0965
MVFR 10°C / 8°C 190º 10kt >10km - Scattered Clouds 1400ft 1007 No Significant change. Runway 22: Wet or puddles, , friction coefficient 0.55. UACC 281230Z 19005MPS 9999 SCT014 BKN023 10/08 Q1007 R22/2///55 NOSIG RMK QFE724/0966
VFR 10°C / 8°C 180º 10kt >10km - Few Clouds 1000ft 1007 No Significant change. Runway 22: Wet or puddles, , friction coefficient 0.55. UACC 281200Z 18005MPS 9999 FEW010 SCT036 10/08 Q1007 R22/2///55 NOSIG RMK QFE724/0966
VFR 11°C / 9°C 170º 10kt >10km - Few Clouds 1300ft 1007 No Significant change. Runway 22: Wet or puddles, , friction coefficient 0.55. UACC 281130Z 17005MPS 9999 FEW013 BKN036CB 11/09 Q1007 R22/2///55 NOSIG RMK QFE724/0966
VFR 11°C / 9°C 170º 10kt >10km - Few Clouds 1000ft 1007 No Significant change. Runway 22: Wet or puddles, 26-50% contamination with 3mm, friction coefficient 0.55. UACC 281100Z 17005MPS 9999 FEW010 BKN040CB 11/09 Q1007 R22/250355 NOSIG RMK QFE724/0966
VFR 9°C / 8°C 160º 6kt >10km - Few Clouds 3000ft 1007 No Significant change. Runway 22: Wet or puddles, 26-50% contamination with 3mm, friction coefficient 0.55. UACC 281030Z 16003MPS 9999 FEW030CB OVC040 09/08 Q1007 R22/250355 NOSIG RMK QFE724/0966

VFR

7°C / 6°C

[Víc]
Vítr 250º 8kt
Viditelnost >10km
Počasí -
Oblaky Scattered Clouds 700ft
Tlak 1006
Změna No Significant change. Runway 22: Wet or puddles, 51-100% contamination with 3mm, friction coefficient 0.50.
Nezpracované UACC 282200Z 25004MPS 9999 SCT007 OVC043CB 07/06 Q1006 R22/290350 NOSIG RMK QFE724/0965

IFR

7°C / 6°C

[Víc]
Vítr 250º 10kt
Viditelnost >10km
Počasí -
Oblaky Broken Clouds 800ft
Tlak 1006
Změna No Significant change. Runway 22: Wet or puddles, 51-100% contamination with 3mm, friction coefficient 0.50.
Nezpracované UACC 282130Z 25005MPS 9999 BKN008 OVC036CB 07/06 Q1006 R22/290350 NOSIG RMK QFE724/0965

IFR

7°C / 6°C

[Víc]
Vítr 240º 12kt
Viditelnost >10km
Počasí -
Oblaky Broken Clouds 800ft
Tlak 1006
Změna No Significant change. Runway 22: Wet or puddles, 51-100% contamination with 3mm, friction coefficient 0.50.
Nezpracované UACC 282100Z 24006MPS 9999 BKN008 OVC036CB 07/06 Q1006 R22/290350 NOSIG RMK QFE723/0965

VFR

7°C / 7°C

[Víc]
Vítr 220º 8kt
Viditelnost >10km
Počasí -
Oblaky Scattered Clouds 800ft
Tlak 1006
Změna No Significant change. Runway 22: Wet or puddles, 51-100% contamination with 3mm, friction coefficient 0.50.
Nezpracované UACC 282030Z 22004MPS 9999 SCT008 OVC036CB 07/07 Q1006 R22/290350 NOSIG RMK QFE723/0965

MVFR

7°C / 6°C

[Víc]
Vítr 220º 4kt
Viditelnost 7000m
Počasí Light Showers Rain 3.00mm precipitation
Oblaky Vertical Visibility of 0ft.
Tlak 1006
Změna No Significant change. Runway 22: Wet or puddles, 51-100% contamination with 3mm, friction coefficient 0.50.
Nezpracované UACC 282000Z 22002MPS 7000 -SHRA SCT013 OVC036CB 07/06 Q1006 R22/290350 NOSIG RMK QFE723/0964

VFR

7°C / 6°C

[Víc]
Vítr 210º 6kt
Viditelnost >10km
Počasí -
Oblaky Scattered Clouds 1400ft
Tlak 1006
Změna No Significant change. Runway 22: Wet or puddles, 51-100% contamination with 3mm, friction coefficient 0.50.
Nezpracované UACC 281930Z 21003MPS 9999 SCT014 BKN036CB 07/06 Q1006 R22/290350 NOSIG RMK QFE723/0964

VFR

6°C / 5°C

[Víc]
Vítr 180º 4kt
Viditelnost >10km
Počasí -
Oblaky Few Clouds 2300ft
Tlak 1005
Změna No Significant change. Runway 22: Wet or puddles, 51-100% contamination with 3mm, friction coefficient 0.50.
Nezpracované UACC 281900Z 18002MPS 9999 FEW023CB 06/05 Q1005 R22/290350 NOSIG RMK QFE723/0964

VFR

6°C / 5°C

[Víc]
Vítr variable 2kt
Viditelnost >10km
Počasí -
Oblaky Few Clouds 3000ft
Tlak 1005
Změna No Significant change. Runway 22: Wet or puddles, 51-100% contamination with 3mm, friction coefficient 0.50.
Nezpracované UACC 281830Z VRB01MPS 9999 FEW030CB 06/05 Q1005 R22/290350 NOSIG RMK QFE723/0964

VFR

7°C / 5°C

[Víc]
Vítr 350º 6kt
Viditelnost >10km
Počasí -
Oblaky Few Clouds 1200ft
Tlak 1005
Změna No Significant change. Runway 22: Wet or puddles, 51-100% contamination with 3mm, friction coefficient 0.50.
Nezpracované UACC 281800Z 35003MPS 9999 FEW012 BKN036CB 07/05 Q1005 R22/290350 NOSIG RMK QFE723/0964

MVFR

8°C / 6°C

[Víc]
Vítr 310º 8kt
Viditelnost 5000m
Počasí Light Showers Rain 3.00mm precipitation
Oblaky Vertical Visibility of 0ft.
Tlak 1006
Změna No Significant change. Runway 22: Wet or puddles, 51-100% contamination with 3mm, friction coefficient 0.50.
Nezpracované UACC 281730Z 31004MPS 5000 -SHRA SCT008 BKN026CB 08/06 Q1006 RESHRA R22/290350 NOSIG RMK QFE723/0965

IFR

8°C / 7°C

[Víc]
Vítr 240º 4kt
Viditelnost 2000m. Runway 22: Visual range is 2000m and decreasing.
Počasí Showers Rain 3.00mm precipitation
Oblaky Vertical Visibility of 0ft.
Tlak 1006
Změna No Significant change. Runway 22: Wet or puddles, 51-100% contamination, friction coefficient 0.60.
Nezpracované UACC 281707Z 24002MPS 2000 R22/P2000D SHRA SCT020CB OVC036 08/07 Q1006 R22/29//60 NOSIG RMK QFE724/0965

MVFR

8°C / 7°C

[Víc]
Vítr 50º variable 020º to 080º 4kt
Viditelnost >10km
Počasí Light Drizzle 0.20mm precipitation
Oblaky Vertical Visibility of 0ft.
Tlak 1006
Změna No Significant change. Runway 22: Wet or puddles, 51-100% contamination, friction coefficient 0.60.
Nezpracované UACC 281630Z 05002MPS 020V080 9999 -DZ OVC017 08/07 Q1006 R22/29//60 NOSIG RMK QFE723/0965

MVFR

8°C / 7°C

[Víc]
Vítr 20º variable 350º to 060º 4kt
Viditelnost 7000m
Počasí Light Drizzle 0.20mm precipitation
Oblaky Vertical Visibility of 0ft.
Tlak 1006
Změna No Significant change. Runway 22: Wet or puddles, 51-100% contamination, friction coefficient 0.60.
Nezpracované UACC 281600Z 02002MPS 350V060 7000 -DZ OVC014 08/07 Q1006 R22/29//60 NOSIG RMK QFE723/0965

VFR

8°C / 7°C

[Víc]
Vítr 330º variable 290º to 360º 8kt
Viditelnost >10km
Počasí -
Oblaky Scattered Clouds 700ft
Tlak 1006
Změna No Significant change. Runway 22: Wet or puddles, 51-100% contamination, friction coefficient 0.60.
Nezpracované UACC 281530Z 33004MPS 290V360 9999 SCT007 BKN063CB 08/07 Q1006 R22/29//60 NOSIG RMK QFE724/0965

VFR

7°C / 7°C

[Víc]
Vítr 140º 6kt
Viditelnost >10km
Počasí -
Oblaky Scattered Clouds 3600ft
Tlak 1006
Změna No Significant change. Runway 22: Wet or puddles, 51-100% contamination, friction coefficient 0.60.
Nezpracované UACC 281500Z 14003MPS 9999 SCT036CB 07/07 Q1006 R22/29//60 NOSIG RMK QFE724/0965

VFR

6°C / 5°C

[Víc]
Vítr 140º 6kt
Viditelnost >10km
Počasí -
Oblaky Few Clouds 3000ft
Tlak 1006
Změna No Significant change. Runway 22: Wet or puddles, 51-100% contamination, friction coefficient 0.60.
Nezpracované UACC 281430Z 14003MPS 9999 FEW030 06/05 Q1006 R22/29//60 NOSIG RMK QFE724/0965

VFR

7°C / 6°C

[Víc]
Vítr variable 2kt
Viditelnost >10km
Počasí -
Oblaky Scattered Clouds 3000ft
Tlak 1006
Změna No Significant change. Runway 22: Wet or puddles, 51-100% contamination, friction coefficient 0.60.
Nezpracované UACC 281400Z VRB01MPS 9999 SCT030 07/06 Q1006 R22/29//60 NOSIG RMK QFE724/0965

VFR

8°C / 7°C

[Víc]
Vítr 180º 6kt
Viditelnost >10km
Počasí -
Oblaky Scattered Clouds 2300ft
Tlak 1006
Změna No Significant change. Runway 22: Wet or puddles, 51-100% contamination, friction coefficient 0.60.
Nezpracované UACC 281330Z 18003MPS 9999 SCT023 08/07 Q1006 R22/29//60 NOSIG RMK QFE724/0965

MVFR

9°C / 7°C

[Víc]
Vítr 180º 8kt
Viditelnost >10km
Počasí -
Oblaky Broken Clouds 1600ft
Tlak 1007
Změna No Significant change. Runway 22: Wet or puddles, , friction coefficient 0.55.
Nezpracované UACC 281300Z 18004MPS 9999 BKN016 09/07 Q1007 R22/2///55 NOSIG RMK QFE724/0965

MVFR

10°C / 8°C

[Víc]
Vítr 190º 10kt
Viditelnost >10km
Počasí -
Oblaky Scattered Clouds 1400ft
Tlak 1007
Změna No Significant change. Runway 22: Wet or puddles, , friction coefficient 0.55.
Nezpracované UACC 281230Z 19005MPS 9999 SCT014 BKN023 10/08 Q1007 R22/2///55 NOSIG RMK QFE724/0966

VFR

10°C / 8°C

[Víc]
Vítr 180º 10kt
Viditelnost >10km
Počasí -
Oblaky Few Clouds 1000ft
Tlak 1007
Změna No Significant change. Runway 22: Wet or puddles, , friction coefficient 0.55.
Nezpracované UACC 281200Z 18005MPS 9999 FEW010 SCT036 10/08 Q1007 R22/2///55 NOSIG RMK QFE724/0966

VFR

11°C / 9°C

[Víc]
Vítr 170º 10kt
Viditelnost >10km
Počasí -
Oblaky Few Clouds 1300ft
Tlak 1007
Změna No Significant change. Runway 22: Wet or puddles, , friction coefficient 0.55.
Nezpracované UACC 281130Z 17005MPS 9999 FEW013 BKN036CB 11/09 Q1007 R22/2///55 NOSIG RMK QFE724/0966

VFR

11°C / 9°C

[Víc]
Vítr 170º 10kt
Viditelnost >10km
Počasí -
Oblaky Few Clouds 1000ft
Tlak 1007
Změna No Significant change. Runway 22: Wet or puddles, 26-50% contamination with 3mm, friction coefficient 0.55.
Nezpracované UACC 281100Z 17005MPS 9999 FEW010 BKN040CB 11/09 Q1007 R22/250355 NOSIG RMK QFE724/0966

VFR

9°C / 8°C

[Víc]
Vítr 160º 6kt
Viditelnost >10km
Počasí -
Oblaky Few Clouds 3000ft
Tlak 1007
Změna No Significant change. Runway 22: Wet or puddles, 26-50% contamination with 3mm, friction coefficient 0.55.
Nezpracované UACC 281030Z 16003MPS 9999 FEW030CB OVC040 09/08 Q1007 R22/250355 NOSIG RMK QFE724/0966

TAF pro 51.02°S 71.47°V (UACC)

From till


Maximum Temperature 10ºC on . Minimum Temperature 3ºC on .
From till Wind variable 4kt. Visibility 6000m. Broken Clouds 1100ft. Broken Clouds 2000ft.
Temporarly from till Visibility 3100m. Light Showers Rain Mist . Broken Clouds 500ft. Broken Clouds 2000ft.
From till Wind 240º 8kt. Visibility 10km or more. Scattered Clouds 1100ft. Broken Clouds 2000ft.
Temporarly from till Wind 300º 8kt. Visibility 5000m. Light Showers Rain . Scattered Clouds 700ft. Broken Clouds 2000ft.

Nezpracované: TAF UACC 281704Z 2818/2918 VRB02MPS 6000 BKN011 BKN020 TX10/2909Z TN03/2918Z TEMPO 2818/2905 3100 -SHRA BR BKN005 BKN020CB FM290500 24004MPS 9999 SCT011 BKN020 TEMPO 2905/2918 30004MPS 5000 -SHRA SCT007 BKN020CB

Aktuální snímky ze satelitu a srážky pro 51.02°S 71.47°V

Značka polohy je umístěna na 51.02°S 71.47°V. [Víc]

Satelitní snímek v reálném čase kombinuje viditelné světlo během dne s infračerveným zářením během noci. V noci není obraz tmavý, protože infračervené záření dokáže detekovat teplotní rozdíly. Nízká oblačnost a mlha se bohužel těžko odlišují od pozemních teplot, a proto mohou být během noci téměř neviditelné. Satelitní snímky z Meteosatu pro Evropu jsou aktualizovány v reálném čase každých 5 minut. Snímky z GOES-16/GOES-17 (Severní a Jižní Amerika) a Himawari (Asie) jsou aktualizovány) každých 10 minut.

Copyright 2021 EUMETSAT / meteoblue. / Copyright 2021 meteoblue

Radar a krátkodobá předpověď srážek pro 51.02°S 71.47°V

Mrholení
Slabé
Mírná
Silné
Velmi silné
Kroupy

Značka lokality je umístněna na 51.02°S 71.47°V. Tato animace ukazuje srážky zaznamenané radarem za poslední hodinu a také 1h předpověď. Mrholení nebo slabé sněžení může být pro radar neviditelné. Intenzita srážek je barevně označena od světle modré po oranžovou.